Time;durP1;ratioP1;P1;durP2;ratioP2;P2;SDS_P1;SDS_P2;PMS_P1;PMS_P2;Temp;Humidity;BMP_temperature;BMP_pressure;BME280_temperature;BME280_humidity;BME280_pressure;Samples;Min_cycle;Max_cycle;Signal;HPM_P1;HPM_P2
2021/03/07 00:00:25;;;;;;;12.50;7.20;;;4.90;56.60;;;;;;5055844;28;20029;-68
2021/03/07 00:02:51;;;;;;;10.30;7.03;;;4.90;56.30;;;;;;5056010;28;20029;-68
2021/03/07 00:05:17;;;;;;;11.40;7.10;;;4.90;55.20;;;;;;5055805;28;20025;-68
2021/03/07 00:07:44;;;;;;;11.20;6.93;;;4.90;55.90;;;;;;5055660;28;20033;-69
2021/03/07 00:10:12;;;;;;;12.53;7.27;;;4.90;55.70;;;;;;5055514;28;20025;-68
2021/03/07 00:12:39;;;;;;;11.43;6.13;;;4.90;55.30;;;;;;5055691;28;20086;-67
2021/03/07 00:15:06;;;;;;;12.83;7.23;;;4.80;55.20;;;;;;5055890;28;20025;-68
2021/03/07 00:17:32;;;;;;;12.70;7.30;;;4.90;55.30;;;;;;5055340;28;20037;-69
2021/03/07 00:19:58;;;;;;;11.50;7.20;;;4.90;54.90;;;;;;5055402;28;20421;-68
2021/03/07 00:22:24;;;;;;;10.70;6.77;;;4.90;54.90;;;;;;5055661;28;20033;-68
2021/03/07 00:24:50;;;;;;;10.80;6.73;;;4.80;55.20;;;;;;5055529;28;20040;-68
2021/03/07 00:27:16;;;;;;;14.40;7.10;;;4.80;55.80;;;;;;5055458;28;20029;-67
2021/03/07 00:29:41;;;;;;;13.43;7.47;;;4.80;56.10;;;;;;5055695;28;20070;-69
2021/03/07 00:32:07;;;;;;;11.57;7.27;;;4.70;55.20;;;;;;5055601;28;20100;-68
2021/03/07 00:34:33;;;;;;;11.27;6.80;;;4.60;55.80;;;;;;5055221;28;20554;-68
2021/03/07 00:36:58;;;;;;;12.00;7.23;;;4.60;55.80;;;;;;5055141;28;20036;-68
2021/03/07 00:39:24;;;;;;;10.47;7.07;;;4.60;56.20;;;;;;5055171;28;20033;-69
2021/03/07 00:41:50;;;;;;;15.40;9.03;;;4.60;56.40;;;;;;5055203;28;20025;-68
2021/03/07 00:44:16;;;;;;;14.53;8.27;;;4.60;55.40;;;;;;5055186;28;20035;-68
2021/03/07 00:46:47;;;;;;;16.30;10.77;;;4.60;56.40;;;;;;5055268;28;20032;-68
2021/03/07 00:49:19;;;;;;;18.33;9.87;;;4.60;56.40;;;;;;5054790;28;20477;-68
2021/03/07 00:51:45;;;;;;;15.88;10.32;;;4.50;56.40;;;;;;5055279;28;20033;-68
2021/03/07 00:54:11;;;;;;;16.07;9.80;;;4.60;55.80;;;;;;5054547;28;20509;-68
2021/03/07 00:56:36;;;;;;;16.30;10.13;;;4.50;55.80;;;;;;5055142;28;20025;-67
2021/03/07 00:59:02;;;;;;;16.03;9.43;;;4.40;56.50;;;;;;5054888;28;20440;-68
2021/03/07 01:01:28;;;;;;;14.77;8.97;;;4.30;56.20;;;;;;5055006;28;20021;-69
2021/03/07 01:03:53;;;;;;;17.03;9.20;;;4.30;55.90;;;;;;5054857;28;20033;-68
2021/03/07 01:06:19;;;;;;;18.30;9.87;;;4.30;55.40;;;;;;5053685;28;20040;-67
2021/03/07 01:08:45;;;;;;;14.83;8.73;;;4.20;56.70;;;;;;5054457;28;20390;-68
2021/03/07 01:11:11;;;;;;;13.27;7.80;;;4.20;57.40;;;;;;5054548;28;20021;-68
2021/03/07 01:13:37;;;;;;;16.03;8.23;;;4.10;56.30;;;;;;5054295;28;20059;-68
2021/03/07 01:16:04;;;;;;;14.40;7.90;;;4.10;55.80;;;;;;5054240;28;20548;-68
2021/03/07 01:18:29;;;;;;;13.57;8.00;;;4.10;56.30;;;;;;5054148;28;20029;-68
2021/03/07 01:20:55;;;;;;;13.23;8.00;;;4.20;56.20;;;;;;5054591;28;20519;-68
2021/03/07 01:23:21;;;;;;;13.80;7.77;;;4.10;55.80;;;;;;5054255;28;20481;-68
2021/03/07 01:25:48;;;;;;;13.73;7.63;;;4.10;56.10;;;;;;5054044;28;20071;-68
2021/03/07 01:28:14;;;;;;;13.90;8.03;;;4.00;55.80;;;;;;5054188;28;20043;-69
2021/03/07 01:30:40;;;;;;;13.23;7.70;;;4.10;55.80;;;;;;5054251;28;20021;-68
2021/03/07 01:33:07;;;;;;;13.07;7.63;;;4.10;55.90;;;;;;5054358;28;20044;-68
2021/03/07 01:35:33;;;;;;;11.53;7.70;;;4.00;55.60;;;;;;5054225;28;20120;-68
2021/03/07 01:37:59;;;;;;;12.23;7.80;;;3.90;56.40;;;;;;5054006;28;20086;-68
2021/03/07 01:40:27;;;;;;;12.53;7.93;;;4.00;56.30;;;;;;5054290;28;20416;-67
2021/03/07 01:42:56;;;;;;;12.43;7.37;;;4.00;56.00;;;;;;5054069;28;20104;-68
2021/03/07 01:45:23;;;;;;;12.30;7.83;;;3.90;56.50;;;;;;5053816;28;20029;-68
2021/03/07 01:47:55;;;;;;;13.73;7.20;;;3.90;56.30;;;;;;5053797;28;20489;-68
2021/03/07 01:50:24;;;;;;;12.13;7.18;;;3.90;56.00;;;;;;5053966;28;20088;-68
2021/03/07 01:52:50;;;;;;;14.23;7.30;;;4.00;56.00;;;;;;5053857;28;20043;-68
2021/03/07 01:55:17;;;;;;;14.77;7.27;;;3.90;56.30;;;;;;5053901;28;20041;-68
2021/03/07 01:57:47;;;;;;;11.10;6.70;;;3.90;56.00;;;;;;5052518;28;20032;-68
2021/03/07 02:00:14;;;;;;;14.17;7.60;;;3.90;56.50;;;;;;5050871;28;20422;-68
2021/03/07 02:02:40;;;;;;;10.97;6.93;;;3.90;56.30;;;;;;5050956;28;20021;-68
2021/03/07 02:05:12;;;;;;;10.97;6.57;;;3.80;56.40;;;;;;5052150;28;20021;-68
2021/03/07 02:07:40;;;;;;;12.95;7.55;;;3.80;56.70;;;;;;5053173;28;20043;-68
2021/03/07 02:10:08;;;;;;;12.03;6.83;;;3.90;56.80;;;;;;5052153;28;20351;-68
2021/03/07 02:12:34;;;;;;;12.57;7.73;;;3.90;56.70;;;;;;5052926;28;20032;-68
2021/03/07 02:15:04;;;;;;;13.50;8.23;;;3.80;56.50;;;;;;5053114;28;20017;-68
2021/03/07 02:17:30;;;;;;;16.20;7.93;;;3.90;56.40;;;;;;5052899;28;20540;-68
2021/03/07 02:19:56;;;;;;;11.67;7.40;;;3.90;56.50;;;;;;5053428;28;20100;-68
2021/03/07 02:22:36;;;;;;;12.93;7.63;;;3.90;56.40;;;;;;5051866;28;20401;-67
2021/03/07 02:25:11;;;;;;;11.20;6.27;;;4.00;56.30;;;;;;5053199;28;20432;-67
2021/03/07 02:27:37;;;;;;;13.57;7.50;;;4.00;56.20;;;;;;5052596;28;20028;-68
2021/03/07 02:30:11;;;;;;;13.33;7.60;;;4.00;56.00;;;;;;5053173;28;20048;-68
2021/03/07 02:32:42;;;;;;;11.00;6.80;;;4.00;56.00;;;;;;5053092;28;20029;-68
2021/03/07 02:35:13;;;;;;;13.73;7.00;;;3.90;55.90;;;;;;5052729;28;20031;-68
2021/03/07 02:37:44;;;;;;;10.03;6.30;;;3.90;56.40;;;;;;5052945;28;20040;-68
2021/03/07 02:40:12;;;;;;;9.37;6.00;;;3.90;56.00;;;;;;5053033;28;20031;-68
2021/03/07 02:42:41;;;;;;;11.40;6.33;;;3.80;54.80;;;;;;5052475;28;20031;-68
2021/03/07 02:45:10;;;;;;;13.17;6.97;;;3.70;54.50;;;;;;5053011;28;20083;-68
2021/03/07 02:47:37;;;;;;;12.30;7.33;;;3.70;54.50;;;;;;5053104;28;20079;-67
2021/03/07 02:50:10;;;;;;;15.87;8.47;;;3.60;54.40;;;;;;5052564;28;20021;-68
2021/03/07 02:52:39;;;;;;;13.85;8.48;;;3.60;54.30;;;;;;5052897;28;20021;-68
2021/03/07 02:55:07;;;;;;;16.83;8.17;;;3.50;54.40;;;;;;5052807;28;20056;-68
2021/03/07 02:57:35;;;;;;;15.70;7.47;;;3.50;54.20;;;;;;5052469;28;20040;-68
2021/03/07 03:00:03;;;;;;;14.67;7.90;;;3.40;54.30;;;;;;5052842;28;20017;-68
2021/03/07 03:02:31;;;;;;;14.67;8.10;;;3.30;55.10;;;;;;5052842;28;20099;-67
2021/03/07 03:04:58;;;;;;;15.37;7.43;;;3.30;55.20;;;;;;5052896;28;20021;-68
2021/03/07 03:07:28;;;;;;;14.10;7.73;;;3.30;55.10;;;;;;5052992;28;20108;-68
2021/03/07 03:09:55;;;;;;;12.17;7.80;;;3.30;54.90;;;;;;5052828;28;20112;-68
2021/03/07 03:12:24;;;;;;;12.33;6.93;;;3.30;54.80;;;;;;5052559;28;20021;-68
2021/03/07 03:14:50;;;;;;;13.67;6.27;;;3.30;54.70;;;;;;5052681;28;20029;-68
2021/03/07 03:17:16;;;;;;;13.67;7.10;;;3.30;54.70;;;;;;5052556;28;20029;-68
2021/03/07 03:19:45;;;;;;;13.17;7.10;;;3.30;54.70;;;;;;5052580;28;20052;-68
2021/03/07 03:22:12;;;;;;;13.53;6.60;;;3.30;54.80;;;;;;5052675;28;20123;-67
2021/03/07 03:24:38;;;;;;;9.30;5.93;;;3.20;55.90;;;;;;5052657;28;20037;-68
2021/03/07 03:27:05;;;;;;;12.07;5.93;;;3.20;56.00;;;;;;5052410;28;20100;-68
2021/03/07 03:29:32;;;;;;;10.43;5.87;;;3.20;56.00;;;;;;5052500;28;20025;-68
2021/03/07 03:31:59;;;;;;;16.03;7.70;;;3.10;56.00;;;;;;5056421;28;20061;-67
2021/03/07 03:34:25;;;;;;;12.03;5.43;;;3.10;55.70;;;;;;5056011;28;20025;-67
2021/03/07 03:36:51;;;;;;;9.03;5.10;;;3.10;55.70;;;;;;5056468;28;20091;-68
2021/03/07 03:39:21;;;;;;;9.50;5.27;;;3.10;56.40;;;;;;5056356;28;20021;-68
2021/03/07 03:41:54;;;;;;;9.03;5.07;;;3.10;56.80;;;;;;5056237;28;20082;-68
2021/03/07 03:44:27;;;;;;;8.77;5.07;;;3.10;57.30;;;;;;5056198;28;20036;-67
2021/03/07 03:46:55;;;;;;;11.07;4.93;;;3.00;57.30;;;;;;5056415;28;20447;-68
2021/03/07 03:49:28;;;;;;;8.87;5.20;;;3.10;57.60;;;;;;5055871;28;20477;-67
2021/03/07 03:52:03;;;;;;;9.82;5.53;;;3.10;57.40;;;;;;5055971;28;20042;-68
2021/03/07 03:54:31;;;;;;;9.50;5.07;;;3.10;57.40;;;;;;5055683;28;20520;-68
2021/03/07 03:56:59;;;;;;;9.40;5.00;;;3.10;57.10;;;;;;5056005;28;20032;-68
2021/03/07 03:59:31;;;;;;;9.10;4.90;;;3.10;56.80;;;;;;5055793;28;20082;-68
2021/03/07 04:02:00;;;;;;;7.60;4.33;;;3.10;56.60;;;;;;5056034;28;20100;-68
2021/03/07 04:04:30;;;;;;;8.03;4.50;;;3.20;56.60;;;;;;5055879;28;20021;-68
2021/03/07 04:06:57;;;;;;;9.43;4.90;;;3.20;56.30;;;;;;5055764;28;20029;-68
2021/03/07 04:09:24;;;;;;;7.40;4.67;;;3.20;56.10;;;;;;5056045;28;20060;-68
2021/03/07 04:11:50;;;;;;;8.40;4.53;;;3.30;56.20;;;;;;5055453;28;20096;-68
2021/03/07 04:14:18;;;;;;;9.17;4.73;;;3.20;56.40;;;;;;5055741;28;20021;-67
2021/03/07 04:16:49;;;;;;;7.73;4.87;;;3.20;56.30;;;;;;5055639;28;20029;-68
2021/03/07 04:19:16;;;;;;;7.97;4.40;;;3.20;56.10;;;;;;5055193;28;20505;-68
2021/03/07 04:21:43;;;;;;;9.13;5.17;;;3.20;56.30;;;;;;5055559;28;20092;-68
2021/03/07 04:24:09;;;;;;;9.43;4.57;;;3.20;56.30;;;;;;5055247;28;20017;-68
2021/03/07 04:26:35;;;;;;;7.03;4.53;;;3.20;56.50;;;;;;5055719;28;20488;-68
2021/03/07 04:29:01;;;;;;;8.67;4.57;;;3.10;56.40;;;;;;5055601;28;20053;-68
2021/03/07 04:31:27;;;;;;;7.43;4.07;;;3.10;56.60;;;;;;5054342;28;20103;-68
2021/03/07 04:33:53;;;;;;;6.77;4.07;;;3.10;56.50;;;;;;5055528;28;20435;-68
2021/03/07 04:36:19;;;;;;;8.30;5.03;;;3.10;56.80;;;;;;5055044;28;20029;-68
2021/03/07 04:38:45;;;;;;;10.93;5.47;;;3.10;56.50;;;;;;5055476;28;20082;-68
2021/03/07 04:41:11;;;;;;;9.60;5.70;;;3.10;55.90;;;;;;5055176;28;20021;-68
2021/03/07 04:43:49;;;;;;;11.30;6.23;;;3.00;55.90;;;;;;5055202;28;20512;-68
2021/03/07 04:46:17;;;;;;;14.03;5.73;;;3.00;55.80;;;;;;5055020;28;20442;-68
2021/03/07 04:48:43;;;;;;;9.70;5.03;;;2.90;55.50;;;;;;5054877;28;20029;-68
2021/03/07 04:51:09;;;;;;;9.20;5.00;;;2.90;55.60;;;;;;5055225;28;20033;-68
2021/03/07 04:53:34;;;;;;;8.50;4.33;;;2.90;55.90;;;;;;5054784;28;20025;-68
2021/03/07 04:56:01;;;;;;;8.47;4.10;;;2.80;55.90;;;;;;5054975;28;20393;-68
2021/03/07 04:58:27;;;;;;;8.07;4.50;;;2.80;56.00;;;;;;5054699;28;20047;-68
2021/03/07 05:00:52;;;;;;;7.77;4.37;;;2.80;56.00;;;;;;5055025;28;20382;-68
2021/03/07 05:03:18;;;;;;;7.33;4.03;;;2.80;55.90;;;;;;5054845;28;20029;-68
2021/03/07 05:05:44;;;;;;;6.13;3.40;;;2.80;56.00;;;;;;5054957;28;20036;-67
2021/03/07 05:08:10;;;;;;;7.47;4.03;;;2.80;55.60;;;;;;5054592;28;20039;-68
2021/03/07 05:10:35;;;;;;;5.67;3.33;;;2.80;55.10;;;;;;5054885;28;20036;-68
2021/03/07 05:13:01;;;;;;;7.00;3.50;;;2.80;54.60;;;;;;5054488;28;20036;-68
2021/03/07 05:15:27;;;;;;;8.67;3.83;;;2.80;54.30;;;;;;5054664;28;20029;-68
2021/03/07 05:17:52;;;;;;;7.03;3.50;;;2.80;53.90;;;;;;5054409;28;20087;-67
2021/03/07 05:20:18;;;;;;;9.43;4.17;;;2.80;53.90;;;;;;5054195;28;20037;-68
2021/03/07 05:22:44;;;;;;;9.37;4.10;;;2.80;53.30;;;;;;5054397;28;20053;-68
2021/03/07 05:25:10;;;;;;;6.67;3.80;;;2.80;53.30;;;;;;5054427;28;20428;-68
2021/03/07 05:27:35;;;;;;;8.63;4.17;;;2.70;53.30;;;;;;5053731;28;20123;-68
2021/03/07 05:30:01;;;;;;;9.60;4.13;;;2.70;53.60;;;;;;5054264;28;20049;-68
2021/03/07 05:32:27;;;;;;;6.60;3.87;;;2.70;54.00;;;;;;5054373;28;20064;-68
2021/03/07 05:34:52;;;;;;;6.87;4.37;;;2.60;54.30;;;;;;5054336;28;20033;-68
2021/03/07 05:37:18;;;;;;;7.60;4.50;;;2.40;56.00;;;;;;5053959;28;20033;-68
2021/03/07 05:39:44;;;;;;;8.87;5.57;;;2.30;57.10;;;;;;5054020;28;20082;-68
2021/03/07 05:42:10;;;;;;;8.07;4.63;;;2.10;57.90;;;;;;5053833;28;20070;-68
2021/03/07 05:44:36;;;;;;;8.97;5.13;;;2.10;59.10;;;;;;5054073;28;20147;-67
2021/03/07 05:47:02;;;;;;;8.63;5.07;;;2.10;58.90;;;;;;5053917;28;20024;-67
2021/03/07 05:49:28;;;;;;;8.40;4.67;;;2.10;59.10;;;;;;5053859;28;20033;-67
2021/03/07 05:51:53;;;;;;;11.23;5.83;;;2.10;59.70;;;;;;5053937;28;20027;-67
2021/03/07 05:54:20;;;;;;;9.30;5.70;;;2.10;59.60;;;;;;5053152;28;20052;-67
2021/03/07 05:56:49;;;;;;;8.10;4.70;;;2.10;58.70;;;;;;5053650;28;20025;-67
2021/03/07 05:59:17;;;;;;;10.17;4.60;;;2.00;59.30;;;;;;5053590;28;20039;-67
2021/03/07 06:01:42;;;;;;;7.37;4.37;;;1.90;60.50;;;;;;5053654;28;20017;-67
2021/03/07 06:04:09;;;;;;;7.67;5.20;;;2.00;60.70;;;;;;5053611;28;20048;-67
2021/03/07 06:06:35;;;;;;;7.23;4.43;;;2.00;60.20;;;;;;5053616;28;20021;-68
2021/03/07 06:09:28;;;;;;;8.07;4.03;;;2.00;60.40;;;;;;5053577;28;20083;-67
2021/03/07 06:11:56;;;;;;;8.07;4.25;;;2.10;60.10;;;;;;5053679;28;20029;-67
2021/03/07 06:14:23;;;;;;;9.33;4.47;;;2.10;60.20;;;;;;5053357;28;20025;-67
2021/03/07 06:17:09;;;;;;;8.20;4.53;;;2.00;60.50;;;;;;5053413;28;20481;-67
2021/03/07 06:20:03;;;;;;;7.17;4.27;;;2.00;60.60;;;;;;5053606;28;20021;-67
2021/03/07 06:22:31;;;;;;;6.93;4.37;;;2.00;60.80;;;;;;5053244;28;20469;-67
2021/03/07 06:24:57;;;;;;;8.30;4.13;;;2.10;60.90;;;;;;5050798;28;20040;-68
2021/03/07 06:27:24;;;;;;;6.93;4.20;;;2.10;60.30;;;;;;5050653;28;20025;-67
2021/03/07 06:30:11;;;;;;;9.37;4.40;;;2.10;60.20;;;;;;5051498;28;20040;-67
2021/03/07 06:32:43;;;;;;;10.37;4.30;;;2.20;60.60;;;;;;5053157;28;20029;-67
2021/03/07 06:35:11;;;;;;;9.73;4.50;;;2.30;61.10;;;;;;5053061;28;20040;-68
2021/03/07 06:38:06;;;;;;;7.00;3.97;;;2.30;60.90;;;;;;5052887;28;20098;-67
2021/03/07 06:40:35;;;;;;;7.63;4.47;;;2.40;61.00;;;;;;5053023;28;20039;-68
2021/03/07 06:43:22;;;;;;;7.33;4.20;;;2.50;61.00;;;;;;5053185;28;20025;-68
2021/03/07 06:45:49;;;;;;;7.17;4.57;;;2.60;59.70;;;;;;5052601;28;20037;-68
2021/03/07 06:48:15;;;;;;;8.50;5.07;;;2.70;59.90;;;;;;5053026;28;20027;-68
2021/03/07 06:50:54;;;;;;;11.77;5.90;;;2.70;59.00;;;;;;5052352;28;20377;-68
2021/03/07 06:53:41;;;;;;;12.43;6.60;;;2.70;58.20;;;;;;5050064;28;20036;-67
2021/03/07 06:56:07;;;;;;;14.00;6.77;;;2.70;58.00;;;;;;5050257;28;20045;-68
2021/03/07 06:58:33;;;;;;;12.40;5.63;;;2.80;58.20;;;;;;5051876;28;20375;-68
2021/03/07 07:00:59;;;;;;;10.97;5.40;;;2.80;58.00;;;;;;5052900;28;20143;-68
2021/03/07 07:03:25;;;;;;;11.47;5.67;;;2.90;58.30;;;;;;5052721;28;20023;-67
2021/03/07 07:05:53;;;;;;;9.57;5.30;;;2.90;58.00;;;;;;5054879;28;20478;-68
2021/03/07 07:08:42;;;;;;;8.90;4.97;;;3.00;57.80;;;;;;5056504;28;20025;-67
2021/03/07 07:11:08;;;;;;;10.00;5.50;;;3.10;57.70;;;;;;5044705;28;20072;-67
2021/03/07 07:13:45;;;;;;;9.50;5.30;;;3.20;57.30;;;;;;5042003;28;20025;-68
2021/03/07 07:16:13;;;;;;;7.53;4.97;;;3.30;56.60;;;;;;5054747;28;20078;-67
2021/03/07 07:18:43;;;;;;;8.57;4.87;;;3.40;55.70;;;;;;5053976;28;20033;-68
2021/03/07 07:21:14;;;;;;;8.63;5.17;;;3.40;54.10;;;;;;5054327;28;20472;-67
2021/03/07 07:23:40;;;;;;;6.93;4.43;;;3.50;53.70;;;;;;5055994;28;20105;-67
2021/03/07 07:26:07;;;;;;;6.70;4.60;;;3.60;54.00;;;;;;5056386;28;20116;-67
2021/03/07 07:28:34;;;;;;;7.27;4.40;;;3.70;55.10;;;;;;5053959;28;20096;-68
2021/03/07 07:30:59;;;;;;;7.53;4.80;;;3.80;55.20;;;;;;5053597;28;20021;-68
2021/03/07 07:33:55;;;;;;;6.87;4.67;;;3.90;54.60;;;;;;5055065;28;20488;-68
2021/03/07 07:36:51;;;;;;;7.10;4.50;;;4.10;54.20;;;;;;5056262;28;20099;-68
2021/03/07 07:39:39;;;;;;;6.77;4.47;;;4.20;54.30;;;;;;5056057;28;20417;-67
2021/03/07 07:42:37;;;;;;;12.67;5.17;;;4.30;54.30;;;;;;5056081;28;20104;-68
2021/03/07 07:45:12;;;;;;;8.87;5.00;;;4.50;54.40;;;;;;5022104;28;20701;-67
2021/03/07 07:47:49;;;;;;;11.27;5.23;;;4.50;54.50;;;;;;5054813;28;20029;-68
2021/03/07 07:50:30;;;;;;;10.70;5.20;;;4.60;54.20;;;;;;5054705;28;20374;-67
2021/03/07 07:52:57;;;;;;;8.63;4.77;;;4.70;54.20;;;;;;5055947;28;20041;-68
2021/03/07 07:55:40;;;;;;;9.77;4.80;;;4.80;53.20;;;;;;5054745;28;20053;-68
2021/03/07 07:58:06;;;;;;;5.87;3.90;;;4.90;52.60;;;;;;5051141;28;20047;-69
2021/03/07 08:00:50;;;;;;;8.30;4.40;;;4.90;52.00;;;;;;5050682;28;20761;-69
2021/03/07 08:03:35;;;;;;;6.10;3.83;;;5.10;51.60;;;;;;5052616;28;20021;-69
2021/03/07 08:06:03;;;;;;;6.60;3.60;;;5.20;51.00;;;;;;5052650;28;20032;-68
2021/03/07 08:08:34;;;;;;;6.90;3.83;;;5.20;50.30;;;;;;5052956;28;20394;-70
2021/03/07 08:11:01;;;;;;;6.03;3.60;;;5.30;49.70;;;;;;5054126;28;20040;-70
2021/03/07 08:13:27;;;;;;;6.43;3.53;;;5.40;49.40;;;;;;5051734;28;20485;-67
2021/03/07 08:16:00;;;;;;;6.33;4.17;;;5.50;48.70;;;;;;5053176;28;20027;-67
2021/03/07 08:18:48;;;;;;;8.80;4.10;;;5.60;48.50;;;;;;5052620;28;20037;-69
2021/03/07 08:21:18;;;;;;;7.10;3.80;;;5.70;48.30;;;;;;5052747;28;20406;-68
2021/03/07 08:24:08;;;;;;;6.57;4.00;;;5.90;47.80;;;;;;5053414;28;20031;-68
2021/03/07 08:26:44;;;;;;;8.40;4.13;;;6.00;46.70;;;;;;5053898;28;20033;-67
2021/03/07 08:29:46;;;;;;;6.57;3.70;;;6.10;45.90;;;;;;5053921;28;20063;-68
2021/03/07 08:32:31;;;;;;;5.73;3.30;;;6.20;45.10;;;;;;5022075;28;20485;-68
2021/03/07 08:35:09;;;;;;;4.43;2.53;;;6.30;45.00;;;;;;5053512;28;20032;-68
2021/03/07 08:37:34;;;;;;;7.53;3.00;;;6.40;43.90;;;;;;5053410;28;20438;-70
2021/03/07 08:40:25;;;;;;;5.10;3.03;;;6.50;42.90;;;;;;5051267;28;20509;-69
2021/03/07 08:42:51;;;;;;;6.13;2.90;;;6.70;42.00;;;;;;5050821;28;20029;-69
2021/03/07 08:45:21;;;;;;;4.67;2.83;;;6.70;41.80;;;;;;5050815;28;20039;-69
2021/03/07 08:47:59;;;;;;;6.10;3.27;;;6.80;41.50;;;;;;5052067;28;20074;-70
2021/03/07 08:50:27;;;;;;;8.40;3.67;;;6.90;40.80;;;;;;5053740;28;20087;-66
2021/03/07 08:52:53;;;;;;;6.27;2.97;;;7.00;40.80;;;;;;5053718;28;20086;-66
2021/03/07 08:55:20;;;;;;;7.03;3.40;;;7.10;40.20;;;;;;5028954;28;691193;-66
2021/03/07 08:57:50;;;;;;;5.37;2.80;;;7.20;40.00;;;;;;5051190;28;20049;-69
2021/03/07 09:00:19;;;;;;;6.07;3.40;;;7.20;40.00;;;;;;5037641;28;20068;-69
2021/03/07 09:02:45;;;;;;;5.87;2.90;;;7.30;40.40;;;;;;5031189;28;20045;-72
2021/03/07 09:05:31;;;;;;;5.83;3.30;;;7.40;40.40;;;;;;5031716;28;20422;-73
2021/03/07 09:08:03;;;;;;;5.57;3.50;;;7.50;40.30;;;;;;5033639;28;20091;-72
2021/03/07 09:10:50;;;;;;;8.30;4.38;;;7.60;40.30;;;;;;5034400;28;20045;-71
2021/03/07 09:13:18;;;;;;;6.20;3.60;;;7.70;40.00;;;;;;5053719;28;20048;-73
2021/03/07 09:15:51;;;;;;;5.13;3.80;;;7.80;40.30;;;;;;5054165;28;20087;-68
2021/03/07 09:18:25;;;;;;;6.05;3.80;;;7.90;40.50;;;;;;5055690;28;20029;-71
2021/03/07 09:20:55;;;;;;;7.17;4.03;;;8.00;39.90;;;;;;5054326;28;20029;-71
2021/03/07 09:23:28;;;;;;;9.90;4.03;;;8.10;40.40;;;;;;5054088;28;20052;-75
2021/03/07 09:25:54;;;;;;;;;;;8.10;40.50;;;;;;5054559;28;20029;-71
2021/03/07 09:28:29;;;;;;;6.23;3.33;;;8.30;40.30;;;;;;5053325;28;19901;-72
2021/03/07 09:30:59;;;;;;;6.17;3.13;;;8.30;39.90;;;;;;5053840;28;20025;-69
2021/03/07 09:33:25;;;;;;;5.63;3.37;;;8.30;40.20;;;;;;5051269;28;20021;-70
2021/03/07 09:36:11;;;;;;;4.90;3.40;;;8.40;39.90;;;;;;5052154;28;20313;-71
2021/03/07 09:38:52;;;;;;;4.83;3.33;;;8.50;36.60;;;;;;5050141;28;20555;-70
2021/03/07 09:41:29;;;;;;;6.83;3.57;;;8.60;38.20;;;;;;5048743;28;20448;-70
2021/03/07 09:43:58;;;;;;;5.67;3.10;;;8.60;38.30;;;;;;5051833;28;20025;-72
2021/03/07 09:46:25;;;;;;;4.63;2.87;;;8.70;38.40;;;;;;5052251;28;20102;-70
2021/03/07 09:48:57;;;;;;;6.00;3.77;;;8.80;37.90;;;;;;5052744;28;20092;-69
2021/03/07 09:51:26;;;;;;;6.00;3.10;;;8.90;37.60;;;;;;5053513;28;20063;-69
2021/03/07 09:53:52;;;;;;;5.17;3.20;;;8.90;36.00;;;;;;5053355;28;20404;-72
2021/03/07 09:56:34;;;;;;;9.17;3.40;;;8.90;33.90;;;;;;5053510;28;20108;-72
2021/03/07 09:59:23;;;;;;;9.02;3.10;;;8.90;36.00;;;;;;5050953;28;20091;-70
2021/03/07 10:01:57;;;;;;;6.07;3.20;;;9.00;36.70;;;;;;5050771;28;20058;-70
2021/03/07 10:04:34;;;;;;;6.07;3.50;;;9.10;37.00;;;;;;5051453;28;20029;-71
2021/03/07 10:07:22;;;;;;;5.60;3.60;;;9.30;37.10;;;;;;5053037;28;20101;-70
2021/03/07 10:10:00;;;;;;;4.90;3.17;;;9.40;36.60;;;;;;5053838;28;20028;-69
2021/03/07 10:13:01;;;;;;;6.77;3.60;;;9.50;36.80;;;;;;5053360;28;20077;-69
2021/03/07 10:15:32;;;;;;;6.33;3.33;;;9.60;38.00;;;;;;5049174;28;20041;-70
2021/03/07 10:18:02;;;;;;;5.30;3.30;;;9.70;37.00;;;;;;5052927;28;20116;-72
2021/03/07 10:20:39;;;;;;;5.13;3.30;;;9.80;37.40;;;;;;5053379;28;20079;-69
2021/03/07 10:23:05;;;;;;;4.30;3.03;;;9.90;36.50;;;;;;5053580;28;20083;-69
2021/03/07 10:25:34;;;;;;;4.17;3.13;;;10.00;34.10;;;;;;5053257;28;20079;-69
2021/03/07 10:28:05;;;;;;;4.37;2.73;;;10.10;35.80;;;;;;5052722;28;20037;-69
2021/03/07 10:30:42;;;;;;;3.80;2.70;;;10.20;33.60;;;;;;5051654;28;20444;-69
2021/03/07 10:33:23;;;;;;;5.33;3.53;;;10.30;34.30;;;;;;5053178;28;20021;-69
2021/03/07 10:36:19;;;;;;;3.90;2.93;;;10.40;34.30;;;;;;5052880;28;20496;-69
2021/03/07 10:38:49;;;;;;;5.40;3.37;;;10.40;35.20;;;;;;5052838;28;20524;-69
2021/03/07 10:41:24;;;;;;;7.77;2.80;;;10.50;35.30;;;;;;5053063;28;20017;-69
2021/03/07 10:43:56;;;;;;;4.73;2.53;;;10.60;34.90;;;;;;5053320;28;20025;-70
2021/03/07 10:46:33;;;;;;;4.10;2.33;;;10.80;34.40;;;;;;5053519;28;20155;-70
2021/03/07 10:49:01;;;;;;;4.40;2.77;;;10.90;34.20;;;;;;5052998;28;20039;-70
2021/03/07 10:51:27;;;;;;;5.00;2.47;;;11.00;34.10;;;;;;5052878;28;20501;-70
2021/03/07 10:53:54;;;;;;;4.40;2.73;;;11.00;34.30;;;;;;5053005;28;20052;-70
2021/03/07 10:56:20;;;;;;;4.67;2.47;;;11.10;31.90;;;;;;5052910;28;20023;-70
2021/03/07 10:58:46;;;;;;;3.50;2.33;;;11.20;32.50;;;;;;5052766;28;20025;-70
2021/03/07 11:01:14;;;;;;;3.97;2.60;;;11.30;32.20;;;;;;5052894;28;20083;-70
2021/03/07 11:03:40;;;;;;;4.50;2.10;;;11.40;33.00;;;;;;5052964;28;20029;-70
2021/03/07 11:06:06;;;;;;;3.28;2.28;;;11.50;31.40;;;;;;5052914;28;20035;-70
2021/03/07 11:08:31;;;;;;;4.30;2.90;;;11.50;31.00;;;;;;5052601;28;20021;-70
2021/03/07 11:10:57;;;;;;;4.03;2.60;;;11.60;32.20;;;;;;5052650;28;20100;-70
2021/03/07 11:13:22;;;;;;;4.10;2.90;;;11.60;31.80;;;;;;5052960;28;20021;-70
2021/03/07 11:15:48;;;;;;;4.85;3.25;;;11.70;32.40;;;;;;5053022;28;20025;-70
2021/03/07 11:18:14;;;;;;;5.30;3.60;;;11.80;32.00;;;;;;5052487;28;20059;-70
2021/03/07 11:20:39;;;;;;;5.45;3.10;;;11.90;31.70;;;;;;5052564;28;20021;-70
2021/03/07 11:23:05;;;;;;;4.88;3.33;;;11.90;31.10;;;;;;5052865;28;20013;-70
2021/03/07 11:25:31;;;;;;;5.53;3.50;;;11.90;31.90;;;;;;5053010;28;20078;-70
2021/03/07 11:27:57;;;;;;;6.25;4.05;;;12.00;33.20;;;;;;5052529;28;20486;-69
2021/03/07 11:30:22;;;;;;;5.63;3.78;;;12.10;32.10;;;;;;5052604;28;20032;-71
2021/03/07 11:32:48;;;;;;;8.82;3.83;;;12.10;33.00;;;;;;5052506;28;20028;-70
2021/03/07 11:35:14;;;;;;;5.00;3.40;;;12.20;33.00;;;;;;5052629;28;20021;-70
2021/03/07 11:37:39;;;;;;;6.13;3.95;;;12.30;33.20;;;;;;5052320;28;20041;-70
2021/03/07 11:40:06;;;;;;;5.70;3.85;;;12.40;31.30;;;;;;5052505;28;20025;-70
2021/03/07 11:42:31;;;;;;;6.85;4.30;;;12.40;31.20;;;;;;5052589;28;20024;-70
2021/03/07 11:44:57;;;;;;;6.80;4.22;;;12.40;30.30;;;;;;5052489;28;20047;-70
2021/03/07 11:47:23;;;;;;;9.63;4.07;;;12.50;31.00;;;;;;5052347;28;20436;-71
2021/03/07 11:49:48;;;;;;;5.63;3.67;;;12.50;30.90;;;;;;5052400;28;20055;-70
2021/03/07 11:52:14;;;;;;;5.40;4.10;;;12.50;31.50;;;;;;5055306;28;20028;-70
2021/03/07 11:54:40;;;;;;;8.85;4.10;;;12.50;31.50;;;;;;5056044;28;20056;-70
2021/03/07 11:57:06;;;;;;;5.75;3.85;;;12.60;32.10;;;;;;5056006;28;20051;-70
2021/03/07 11:59:33;;;;;;;8.05;4.20;;;12.70;30.80;;;;;;5052928;28;20577;-70
2021/03/07 12:01:59;;;;;;;8.88;4.55;;;12.70;30.30;;;;;;5053058;28;20543;-71
2021/03/07 12:04:25;;;;;;;4.70;3.78;;;12.70;31.20;;;;;;5055107;28;20029;-70
2021/03/07 12:06:51;;;;;;;8.93;4.05;;;12.80;31.20;;;;;;5055877;28;20084;-70
2021/03/07 12:09:16;;;;;;;7.20;4.18;;;12.90;32.00;;;;;;5055694;28;20029;-70
2021/03/07 12:11:43;;;;;;;5.90;4.38;;;12.90;32.70;;;;;;5055830;28;20021;-70
2021/03/07 12:14:08;;;;;;;8.43;5.53;;;13.00;31.90;;;;;;5055990;28;20533;-70
2021/03/07 12:16:34;;;;;;;8.15;4.82;;;13.00;31.40;;;;;;5055734;28;20106;-70
2021/03/07 12:19:00;;;;;;;7.30;4.95;;;13.00;31.00;;;;;;5055472;28;20040;-70
2021/03/07 12:21:26;;;;;;;7.13;4.20;;;13.00;31.30;;;;;;5055767;28;20079;-70
2021/03/07 12:23:51;;;;;;;7.60;4.30;;;13.00;30.60;;;;;;5053414;28;20373;-70
2021/03/07 12:26:17;;;;;;;5.80;4.20;;;13.00;30.40;;;;;;5052887;28;20108;-70
2021/03/07 12:28:43;;;;;;;5.95;4.22;;;13.00;31.40;;;;;;5052604;28;20659;-70
2021/03/07 12:31:08;;;;;;;5.90;4.28;;;13.10;31.50;;;;;;5054877;28;20109;-70
2021/03/07 12:33:34;;;;;;;5.25;4.00;;;13.10;30.40;;;;;;5055345;28;20029;-70
2021/03/07 12:36:00;;;;;;;5.03;3.70;;;13.10;31.00;;;;;;5055532;28;20025;-71
2021/03/07 12:38:25;;;;;;;4.95;3.88;;;13.20;30.40;;;;;;5055051;28;20448;-71
2021/03/07 12:40:51;;;;;;;5.75;3.90;;;13.20;30.90;;;;;;5055054;28;20100;-71
2021/03/07 12:43:17;;;;;;;4.88;3.53;;;13.20;30.00;;;;;;5055210;28;20393;-71
2021/03/07 12:45:43;;;;;;;8.65;4.07;;;13.20;29.10;;;;;;5054910;28;20025;-70
2021/03/07 12:48:09;;;;;;;5.28;3.50;;;13.20;30.00;;;;;;5055130;28;20370;-71
2021/03/07 12:50:36;;;;;;;5.60;3.63;;;13.30;30.90;;;;;;5055098;28;20048;-70
2021/03/07 12:53:03;;;;;;;4.95;3.33;;;13.30;29.70;;;;;;5054802;28;20367;-71
2021/03/07 12:55:29;;;;;;;8.27;3.50;;;13.40;30.00;;;;;;5054724;28;20053;-70
2021/03/07 12:57:54;;;;;;;5.20;3.80;;;13.50;30.10;;;;;;5054648;28;20422;-71
2021/03/07 13:00:20;;;;;;;5.75;3.85;;;13.50;29.10;;;;;;5054372;28;20033;-71
2021/03/07 13:02:46;;;;;;;5.97;3.58;;;13.50;29.10;;;;;;5053452;28;20060;-70
2021/03/07 13:05:12;;;;;;;5.47;3.72;;;13.50;28.40;;;;;;5054511;28;20060;-71